createdAt,value
2022-10-19T00:00:51.840Z,100523.61
2022-10-19T00:03:35.339Z,100522.61
2022-10-19T00:06:17.517Z,100516.87
2022-10-19T00:08:49.474Z,100522.77
2022-10-19T00:11:22.104Z,100527.38
2022-10-19T00:13:54.986Z,100526.92
2022-10-19T00:16:29.233Z,100527.67
2022-10-19T00:19:03.057Z,100524.89
2022-10-19T00:21:35.265Z,100522.70
2022-10-19T00:24:08.526Z,100517.13
2022-10-19T00:26:40.661Z,100516.07
2022-10-19T00:29:14.248Z,100512.05
2022-10-19T00:31:46.511Z,100513.79
2022-10-19T00:34:18.543Z,100510.84
2022-10-19T00:36:50.436Z,100515.30
2022-10-19T00:39:22.347Z,100516.56
2022-10-19T00:41:52.747Z,100517.76
2022-10-19T00:45:10.746Z,100516.39
2022-10-19T00:47:43.854Z,100522.61
2022-10-19T00:50:17.439Z,100524.45
2022-10-19T00:52:49.553Z,100525.06
2022-10-19T00:55:22.082Z,100525.10
2022-10-19T00:57:53.903Z,100528.14
2022-10-19T01:00:25.817Z,100520.99
2022-10-19T01:02:58.943Z,100521.09
2022-10-19T01:05:31.918Z,100518.63
2022-10-19T01:08:04.409Z,100518.90
2022-10-19T01:10:44.015Z,100521.65
2022-10-19T01:13:32.338Z,100519.52
2022-10-19T01:16:12.025Z,100516.00
2022-10-19T01:18:51.833Z,100518.63
2022-10-19T01:21:26.391Z,100520.04
2022-10-19T01:24:44.458Z,100519.11
2022-10-19T01:27:44.967Z,100512.60
2022-10-19T01:30:20.745Z,100511.22
2022-10-19T01:33:03.589Z,100507.48
2022-10-19T01:35:44.670Z,100508.39
2022-10-19T01:38:29.514Z,100504.29
2022-10-19T01:41:11.518Z,100505.90
2022-10-19T01:43:47.584Z,100507.18
2022-10-19T01:46:24.057Z,100505.48
2022-10-19T01:49:03.136Z,100504.66
2022-10-19T01:51:39.671Z,100503.14
2022-10-19T01:54:14.769Z,100501.52
2022-10-19T01:56:49.604Z,100500.55
2022-10-19T01:59:22.346Z,100500.64
2022-10-19T02:01:55.733Z,100497.74
2022-10-19T02:04:28.320Z,100503.50
2022-10-19T02:07:02.863Z,100506.85
2022-10-19T02:09:34.743Z,100508.48
2022-10-19T02:12:09.632Z,100509.43
2022-10-19T02:14:44.449Z,100510.75
2022-10-19T02:17:19.378Z,100510.48
2022-10-19T02:19:51.735Z,100510.49
2022-10-19T02:22:23.749Z,100512.62
2022-10-19T02:24:55.665Z,100512.01
2022-10-19T02:27:27.937Z,100509.95
2022-10-19T02:30:00.165Z,100510.88
2022-10-19T02:32:32.447Z,100509.48
2022-10-19T02:35:05.030Z,100513.09
2022-10-19T02:37:37.200Z,100508.88
2022-10-19T02:40:09.132Z,100508.98
2022-10-19T02:42:46.458Z,100507.77
2022-10-19T02:45:24.079Z,100504.08
2022-10-19T02:47:59.882Z,100495.55
2022-10-19T02:50:32.227Z,100495.03
2022-10-19T02:53:04.435Z,100495.40
2022-10-19T02:55:36.685Z,100495.59
2022-10-19T02:58:09.114Z,100502.38
2022-10-19T03:00:41.052Z,100504.32
2022-10-19T03:03:11.854Z,100503.67
2022-10-19T03:05:44.013Z,100498.23
2022-10-19T03:08:14.322Z,100496.15
2022-10-19T03:10:46.262Z,100495.51
2022-10-19T03:13:18.242Z,100495.79
2022-10-19T03:15:48.617Z,100498.98
2022-10-19T03:18:20.555Z,100496.98
2022-10-19T03:20:52.333Z,100497.98
2022-10-19T03:23:24.345Z,100500.17
2022-10-19T03:25:54.641Z,100500.02
2022-10-19T03:28:26.911Z,100500.88
2022-10-19T03:30:57.676Z,100502.96
2022-10-19T03:33:29.541Z,100504.82
2022-10-19T03:36:22.793Z,100501.30
2022-10-19T03:38:56.032Z,100497.37
2022-10-19T03:41:29.852Z,100496.61
2022-10-19T03:44:02.383Z,100488.41
2022-10-19T03:46:34.352Z,100486.92
2022-10-19T03:49:04.911Z,100483.98
2022-10-19T03:51:37.289Z,100483.27
2022-10-19T03:54:16.553Z,100486.31
2022-10-19T03:56:48.510Z,100486.14
2022-10-19T03:59:18.941Z,100481.89
2022-10-19T04:01:50.753Z,100478.54
2022-10-19T04:04:22.946Z,100489.58
2022-10-19T04:06:54.835Z,100490.84
2022-10-19T04:09:26.803Z,100488.10
2022-10-19T04:11:58.657Z,100489.05
2022-10-19T04:14:33.190Z,100489.64
2022-10-19T04:17:11.984Z,100488.25
2022-10-19T04:19:43.839Z,100486.22
2022-10-19T04:22:16.978Z,100488.23
2022-10-19T04:24:48.943Z,100481.52
2022-10-19T04:27:20.887Z,100482.50
2022-10-19T04:29:53.075Z,100481.17
2022-10-19T04:32:23.310Z,100479.44
2022-10-19T04:34:55.438Z,100478.80
2022-10-19T04:37:27.472Z,100475.56
2022-10-19T04:39:59.829Z,100478.11
2022-10-19T04:42:31.848Z,100475.90
2022-10-19T04:45:03.890Z,100475.98
2022-10-19T04:47:36.533Z,100471.30
2022-10-19T04:50:09.853Z,100476.37
2022-10-19T04:52:41.828Z,100476.39
2022-10-19T04:55:13.698Z,100473.21
2022-10-19T04:57:45.607Z,100472.61
2022-10-19T05:00:18.592Z,100475.59
2022-10-19T05:02:52.808Z,100476.67
2022-10-19T05:05:26.604Z,100475.36
2022-10-19T05:07:58.642Z,100470.19
2022-10-19T05:10:29.081Z,100465.45
2022-10-19T05:13:03.402Z,100463.23
2022-10-19T05:15:35.357Z,100461.20
2022-10-19T05:18:05.772Z,100467.15
2022-10-19T05:20:39.030Z,100469.77
2022-10-19T05:23:12.383Z,100471.98
2022-10-19T05:25:42.770Z,100477.41
2022-10-19T05:28:14.613Z,100477.54
2022-10-19T05:31:30.850Z,100476.27
2022-10-19T05:34:28.189Z,100472.57
2022-10-19T05:37:00.071Z,100474.20
2022-10-19T05:39:32.328Z,100472.31
2022-10-19T05:42:04.363Z,100479.02
2022-10-19T05:44:34.793Z,100483.87
2022-10-19T05:47:06.871Z,100481.87
2022-10-19T05:49:37.339Z,100483.41
2022-10-19T05:52:09.381Z,100482.52
2022-10-19T05:54:39.743Z,100492.90
2022-10-19T05:57:11.602Z,100493.61
2022-10-19T05:59:43.497Z,100496.05
2022-10-19T06:02:16.686Z,100492.66
2022-10-19T06:04:48.518Z,100498.48
2022-10-19T06:07:20.540Z,100506.59
2022-10-19T06:09:52.461Z,100512.28
2022-10-19T06:12:25.066Z,100513.73
2022-10-19T06:14:57.220Z,100515.73
2022-10-19T06:17:31.013Z,100517.81
2022-10-19T06:20:03.055Z,100515.39
2022-10-19T06:22:35.145Z,100522.48
2022-10-19T06:25:06.070Z,100528.06
2022-10-19T06:27:38.348Z,100524.27
2022-10-19T06:30:13.031Z,100530.91
2022-10-19T06:32:45.179Z,100531.63
2022-10-19T06:35:16.129Z,100535.94
2022-10-19T06:37:48.270Z,100531.84
2022-10-19T06:40:19.056Z,100531.90
2022-10-19T06:42:51.071Z,100529.17
2022-10-19T06:45:23.159Z,100532.86
2022-10-19T06:47:53.662Z,100537.66
2022-10-19T06:50:25.602Z,100534.16
2022-10-19T06:52:56.021Z,100535.49
2022-10-19T06:55:27.986Z,100541.08
2022-10-19T06:58:01.804Z,100541.22
2022-10-19T07:00:33.890Z,100543.32
2022-10-19T07:03:06.126Z,100548.58
2022-10-19T07:05:38.175Z,100551.48
2022-10-19T07:08:10.417Z,100548.23
2022-10-19T07:10:42.506Z,100551.45
2022-10-19T07:13:14.518Z,100555.43
2022-10-19T07:15:46.692Z,100554.42
2022-10-19T07:18:18.802Z,100545.94
2022-10-19T07:20:58.687Z,100548.98
2022-10-19T07:23:32.694Z,100552.86
2022-10-19T07:26:09.733Z,100555.22
2022-10-19T07:28:43.434Z,100556.05
2022-10-19T07:31:17.884Z,100556.80
2022-10-19T07:33:53.212Z,100559.63
2022-10-19T07:36:26.232Z,100561.30
2022-10-19T07:38:58.258Z,100555.31
2022-10-19T07:41:28.659Z,100561.41
2022-10-19T07:44:00.570Z,100568.33
2022-10-19T07:46:34.461Z,100572.45
2022-10-19T07:49:09.740Z,100569.80
2022-10-19T07:51:41.982Z,100567.09
2022-10-19T07:54:14.310Z,100568.01
2022-10-19T07:56:46.516Z,100573.60
2022-10-19T07:59:17.408Z,100579.30
2022-10-19T08:01:50.290Z,100580.11
2022-10-19T08:07:14.770Z,100580.17
2022-10-19T08:09:54.482Z,100579.30
2022-10-19T08:12:26.625Z,100572.73
2022-10-19T08:14:56.949Z,100579.03
2022-10-19T08:17:28.800Z,100582.56
2022-10-19T08:20:00.938Z,100577.85
2022-10-19T08:22:33.203Z,100579.49
2022-10-19T08:25:05.739Z,100577.02
2022-10-19T08:27:37.734Z,100575.55
2022-10-19T08:30:08.826Z,100571.29
2022-10-19T08:32:40.717Z,100563.27
2022-10-19T08:35:12.696Z,100566.67
2022-10-19T08:37:45.534Z,100561.25
2022-10-19T08:40:23.936Z,100561.88
2022-10-19T08:43:00.879Z,100562.04
2022-10-19T08:48:28.629Z,100557.77
2022-10-19T08:51:01.949Z,100560.79
2022-10-19T08:53:43.372Z,100555.65
2022-10-19T08:56:49.475Z,100556.79
2022-10-19T08:59:27.205Z,100556.20
2022-10-19T09:02:03.672Z,100557.73
2022-10-19T09:04:41.859Z,100557.04
2022-10-19T09:07:26.468Z,100558.20
2022-10-19T09:10:02.495Z,100564.70
2022-10-19T09:12:44.106Z,100560.64
2022-10-19T09:15:20.303Z,100560.65
2022-10-19T09:17:52.246Z,100557.10
2022-10-19T09:20:23.677Z,100559.60
2022-10-19T09:23:04.323Z,100565.38
2022-10-19T09:25:39.433Z,100560.84
2022-10-19T09:28:31.552Z,100556.40
2022-10-19T09:31:13.306Z,100561.86
2022-10-19T09:33:52.642Z,100559.20
2022-10-19T09:36:49.370Z,100561.38
2022-10-19T09:39:20.899Z,100567.80
2022-10-19T09:41:57.829Z,100565.19
2022-10-19T09:44:31.392Z,100562.64
2022-10-19T09:47:18.161Z,100559.94
2022-10-19T09:49:51.345Z,100564.58
2022-10-19T09:52:37.097Z,100560.06
2022-10-19T09:55:21.498Z,100559.82
2022-10-19T09:58:03.003Z,100557.16
2022-10-19T10:00:39.062Z,100557.49
2022-10-19T10:03:22.580Z,100563.34
2022-10-19T10:05:56.469Z,100565.67
2022-10-19T10:08:32.267Z,100567.52
2022-10-19T10:11:12.671Z,100574.67
2022-10-19T10:13:50.324Z,100577.13
2022-10-19T10:16:24.785Z,100576.45
2022-10-19T10:19:00.822Z,100574.45
2022-10-19T10:21:36.473Z,100576.88
2022-10-19T10:24:17.599Z,100570.48
2022-10-19T10:26:51.087Z,100568.50
2022-10-19T10:29:25.557Z,100568.66
2022-10-19T10:32:01.255Z,100570.54
2022-10-19T10:34:50.173Z,100566.26
2022-10-19T10:37:27.123Z,100570.81
2022-10-19T10:40:03.678Z,100575.88
2022-10-19T10:42:42.801Z,100572.02
2022-10-19T10:45:20.729Z,100570.32
2022-10-19T10:47:54.137Z,100569.67
2022-10-19T10:50:28.901Z,100565.12
2022-10-19T10:53:03.269Z,100565.76
2022-10-19T10:55:36.449Z,100565.11
2022-10-19T10:58:16.418Z,100565.52
2022-10-19T11:00:53.378Z,100561.61
2022-10-19T11:03:30.483Z,100562.13
2022-10-19T11:06:03.699Z,100562.42
2022-10-19T11:08:44.186Z,100566.16
2022-10-19T11:11:19.254Z,100562.79
2022-10-19T11:13:59.141Z,100559.50
2022-10-19T11:16:34.830Z,100560.26
2022-10-19T11:21:56.975Z,100554.65
2022-10-19T11:24:46.394Z,100559.90
2022-10-19T11:27:33.487Z,100561.70
2022-10-19T11:30:12.775Z,100563.14
2022-10-19T11:32:58.779Z,100565.45
2022-10-19T11:35:47.230Z,100564.09
2022-10-19T11:38:34.121Z,100561.48
2022-10-19T11:41:18.878Z,100564.73
2022-10-19T11:44:04.092Z,100565.09
2022-10-19T11:46:43.447Z,100560.79
2022-10-19T11:49:28.809Z,100558.77
2022-10-19T11:52:10.509Z,100563.75
2022-10-19T11:54:54.704Z,100563.92
2022-10-19T11:57:32.311Z,100558.39
2022-10-19T12:00:15.213Z,100548.81
2022-10-19T12:03:24.183Z,100550.95
2022-10-19T12:06:08.014Z,100553.87
2022-10-19T12:08:55.393Z,100555.60
2022-10-19T12:11:36.687Z,100552.67
2022-10-19T12:14:14.739Z,100555.39
2022-10-19T12:16:51.458Z,100556.48
2022-10-19T12:19:27.350Z,100555.25
2022-10-19T12:22:03.695Z,100551.19
2022-10-19T12:24:36.559Z,100555.80
2022-10-19T12:27:12.086Z,100555.04
2022-10-19T12:29:49.154Z,100555.30
2022-10-19T12:32:24.741Z,100561.09
2022-10-19T12:35:03.442Z,100558.63
2022-10-19T12:37:41.000Z,100556.35
2022-10-19T12:40:23.833Z,100551.70
2022-10-19T12:43:03.296Z,100554.23
2022-10-19T12:45:38.402Z,100553.39
2022-10-19T12:48:22.077Z,100553.90
2022-10-19T12:51:09.028Z,100558.94
2022-10-19T12:53:44.393Z,100561.24
2022-10-19T12:56:21.935Z,100565.39
2022-10-19T12:58:57.731Z,100559.76
2022-10-19T13:01:44.043Z,100557.84
2022-10-19T13:04:20.562Z,100556.91
2022-10-19T13:07:01.550Z,100556.53
2022-10-19T13:09:36.544Z,100560.05
2022-10-19T13:12:44.865Z,100559.41
2022-10-19T13:15:52.430Z,100559.61
2022-10-19T13:19:07.679Z,100565.27
2022-10-19T13:21:50.887Z,100567.95
2022-10-19T13:24:35.733Z,100565.06
2022-10-19T13:27:28.387Z,100567.35
2022-10-19T13:30:00.441Z,100564.98
2022-10-19T13:32:37.438Z,100561.65
2022-10-19T13:35:30.520Z,100560.36
2022-10-19T13:38:26.450Z,100563.44
2022-10-19T13:41:09.832Z,100559.24
2022-10-19T13:43:52.262Z,100564.36
2022-10-19T13:46:35.581Z,100574.09
2022-10-19T13:49:40.373Z,100573.96
2022-10-19T13:52:40.242Z,100567.56
2022-10-19T13:55:47.471Z,100567.05
2022-10-19T13:58:41.971Z,100569.55
2022-10-19T14:01:28.204Z,100573.22
2022-10-19T14:04:19.071Z,100575.75
2022-10-19T14:06:55.552Z,100572.67
2022-10-19T14:09:57.174Z,100578.70
2022-10-19T14:12:32.221Z,100578.92
2022-10-19T14:15:20.853Z,100571.30
2022-10-19T14:17:52.997Z,100572.64
2022-10-19T14:20:28.500Z,100567.73
2022-10-19T14:23:18.703Z,100565.02
2022-10-19T14:26:00.661Z,100565.28
2022-10-19T14:28:36.438Z,100561.91
2022-10-19T14:31:11.991Z,100560.48
2022-10-19T14:33:51.371Z,100560.38
2022-10-19T14:36:26.653Z,100558.45
2022-10-19T14:39:02.527Z,100551.77
2022-10-19T14:41:37.862Z,100562.98
2022-10-19T14:44:31.588Z,100561.48
2022-10-19T14:47:07.926Z,100563.83
2022-10-19T14:49:39.886Z,100567.70
2022-10-19T14:52:18.816Z,100563.98
2022-10-19T14:54:53.547Z,100561.83
2022-10-19T14:57:33.265Z,100561.89
2022-10-19T15:00:10.659Z,100564.58
2022-10-19T15:02:47.855Z,100563.27
2022-10-19T15:05:22.951Z,100565.22
2022-10-19T15:07:56.094Z,100564.92
2022-10-19T15:10:37.084Z,100566.15
2022-10-19T15:13:17.809Z,100564.24
2022-10-19T15:15:54.133Z,100576.89
2022-10-19T15:18:48.317Z,100579.30
2022-10-19T15:21:23.171Z,100582.89
2022-10-19T15:23:55.442Z,100586.39
2022-10-19T15:26:32.486Z,100586.91
2022-10-19T15:29:20.076Z,100582.31
2022-10-19T15:31:56.346Z,100584.59
2022-10-19T15:34:31.269Z,100585.59
2022-10-19T15:37:03.866Z,100590.20
2022-10-19T15:39:42.084Z,100586.80
2022-10-19T15:42:39.353Z,100579.75
2022-10-19T15:45:32.189Z,100580.20
2022-10-19T15:48:29.190Z,100577.14
2022-10-19T15:51:01.162Z,100576.93
2022-10-19T15:53:32.937Z,100575.00
2022-10-19T15:56:04.800Z,100577.42
2022-10-19T15:58:36.743Z,100574.58
2022-10-19T16:01:17.407Z,100578.92
2022-10-19T16:03:49.869Z,100582.13
2022-10-19T16:06:23.877Z,100588.41
2022-10-19T16:08:56.404Z,100591.85
2022-10-19T16:11:34.711Z,100594.66
2022-10-19T16:14:06.552Z,100603.11
2022-10-19T16:16:38.906Z,100611.09
2022-10-19T16:19:10.925Z,100611.21
2022-10-19T16:21:46.695Z,100611.83
2022-10-19T16:24:22.095Z,100614.13
2022-10-19T16:26:56.638Z,100619.33
2022-10-19T16:29:29.160Z,100617.59
2022-10-19T16:32:01.232Z,100622.27
2022-10-19T16:34:31.843Z,100623.95
2022-10-19T16:37:06.760Z,100619.81
2022-10-19T16:39:39.489Z,100623.75
2022-10-19T16:42:11.858Z,100620.19
2022-10-19T16:44:42.126Z,100623.91
2022-10-19T16:47:14.011Z,100627.55
2022-10-19T16:49:45.845Z,100631.94
2022-10-19T16:52:18.091Z,100634.59
2022-10-19T16:54:50.078Z,100633.34
2022-10-19T16:57:20.773Z,100636.70
2022-10-19T17:00:04.837Z,100635.98
2022-10-19T17:02:41.790Z,100645.56
2022-10-19T17:05:16.475Z,100650.54
2022-10-19T17:07:46.971Z,100652.04
2022-10-19T17:10:19.718Z,100654.56
2022-10-19T17:12:51.903Z,100657.70
2022-10-19T17:15:42.154Z,100661.15
2022-10-19T17:18:14.205Z,100669.19
2022-10-19T17:20:46.134Z,100671.45
2022-10-19T17:23:16.708Z,100681.55
2022-10-19T17:25:51.570Z,100685.02
2022-10-19T17:28:26.837Z,100684.54
2022-10-19T17:31:03.382Z,100688.66
2022-10-19T17:33:35.841Z,100690.83
2022-10-19T17:36:10.657Z,100698.70
2022-10-19T17:38:43.223Z,100703.15
2022-10-19T17:41:17.200Z,100707.86
2022-10-19T17:43:51.735Z,100711.48
2022-10-19T17:46:25.283Z,100713.77
2022-10-19T17:48:58.035Z,100714.63
2022-10-19T17:51:32.397Z,100714.48
2022-10-19T17:54:07.720Z,100715.14
2022-10-19T17:56:44.935Z,100716.04
2022-10-19T17:59:22.590Z,100718.15
2022-10-19T18:02:03.362Z,100720.89
2022-10-19T18:07:09.004Z,100716.69
2022-10-19T18:09:41.601Z,100716.80
2022-10-19T18:12:14.163Z,100722.44
2022-10-19T18:14:46.860Z,100722.40
2022-10-19T18:17:21.749Z,100718.34
2022-10-19T18:19:57.104Z,100718.11
2022-10-19T18:22:29.887Z,100717.38
2022-10-19T18:25:02.215Z,100718.36
2022-10-19T18:27:35.554Z,100717.95
2022-10-19T18:30:10.696Z,100721.97
2022-10-19T18:32:42.885Z,100725.26
2022-10-19T18:35:15.643Z,100727.66
2022-10-19T18:37:48.475Z,100727.20
2022-10-19T18:40:22.091Z,100726.85
2022-10-19T18:42:55.280Z,100727.86
2022-10-19T18:45:29.752Z,100727.00
2022-10-19T18:48:02.498Z,100731.40
2022-10-19T18:50:35.045Z,100732.00
2022-10-19T18:53:07.232Z,100731.37
2022-10-19T18:55:39.298Z,100724.88
2022-10-19T18:58:13.368Z,100729.20
2022-10-19T19:00:46.366Z,100732.06
2022-10-19T19:03:20.583Z,100735.52
2022-10-19T19:05:53.110Z,100734.23
2022-10-19T19:08:25.995Z,100737.44
2022-10-19T19:10:58.625Z,100733.81
2022-10-19T19:13:30.818Z,100737.00
2022-10-19T19:16:07.862Z,100735.92
2022-10-19T19:18:40.051Z,100733.25
2022-10-19T19:21:18.904Z,100733.83
2022-10-19T19:23:51.465Z,100730.02
2022-10-19T19:26:26.406Z,100728.39
2022-10-19T19:28:59.149Z,100728.94
2022-10-19T19:31:31.887Z,100737.73
2022-10-19T19:34:15.324Z,100736.49
2022-10-19T19:36:49.565Z,100738.18
2022-10-19T19:39:23.020Z,100742.67
2022-10-19T19:41:54.907Z,100742.58
2022-10-19T19:44:30.571Z,100748.16
2022-10-19T19:47:04.773Z,100749.46
2022-10-19T19:49:37.392Z,100753.04
2022-10-19T19:52:09.590Z,100754.00
2022-10-19T19:54:42.740Z,100755.78
2022-10-19T19:57:18.146Z,100756.77
2022-10-19T19:59:53.758Z,100761.61
2022-10-19T20:02:25.627Z,100764.06
2022-10-19T20:04:57.681Z,100764.77
2022-10-19T20:07:28.279Z,100771.70
2022-10-19T20:10:02.338Z,100777.61
2022-10-19T20:12:35.666Z,100776.39
2022-10-19T20:15:08.854Z,100776.33
2022-10-19T20:17:40.963Z,100775.88
2022-10-19T20:20:15.498Z,100781.11
2022-10-19T20:22:50.028Z,100781.68
2022-10-19T20:25:22.042Z,100785.48
2022-10-19T20:27:52.513Z,100784.63
2022-10-19T20:30:24.581Z,100789.38
2022-10-19T20:32:55.944Z,100792.42
2022-10-19T20:35:28.080Z,100790.16
2022-10-19T20:38:00.203Z,100791.17
2022-10-19T20:40:32.225Z,100792.11
2022-10-19T20:43:02.719Z,100793.80
2022-10-19T20:45:37.440Z,100796.00
2022-10-19T20:48:09.456Z,100797.26
2022-10-19T20:50:41.312Z,100797.61
2022-10-19T20:53:13.275Z,100799.17
2022-10-19T20:55:45.204Z,100792.89
2022-10-19T20:58:17.157Z,100793.33
2022-10-19T21:00:49.322Z,100792.73
2022-10-19T21:03:21.356Z,100801.53
2022-10-19T21:05:53.547Z,100803.00
2022-10-19T21:08:23.798Z,100805.41
2022-10-19T21:10:55.820Z,100804.12
2022-10-19T21:13:27.815Z,100804.14
2022-10-19T21:15:59.984Z,100802.26
2022-10-19T21:18:31.849Z,100804.91
2022-10-19T21:21:10.475Z,100808.04
2022-10-19T21:23:43.165Z,100806.23
2022-10-19T21:26:15.558Z,100811.17
2022-10-19T21:28:50.728Z,100811.67
2022-10-19T21:31:24.356Z,100808.73
2022-10-19T21:33:56.606Z,100809.92
2022-10-19T21:36:27.012Z,100807.69
2022-10-19T21:38:59.081Z,100813.55
2022-10-19T21:41:30.915Z,100812.27
2022-10-19T21:44:03.462Z,100813.38
2022-10-19T21:46:35.591Z,100816.70
2022-10-19T21:49:07.551Z,100814.69
2022-10-19T21:51:43.605Z,100813.69
2022-10-19T21:54:17.744Z,100815.90
2022-10-19T21:56:50.165Z,100815.36
2022-10-19T21:59:22.060Z,100812.67
2022-10-19T22:01:55.312Z,100811.83
2022-10-19T22:04:27.231Z,100812.23
2022-10-19T22:06:59.595Z,100813.70
2022-10-19T22:09:31.470Z,100815.03
2022-10-19T22:12:03.532Z,100817.82
2022-10-19T22:14:34.109Z,100818.52
2022-10-19T22:17:06.199Z,100819.36
2022-10-19T22:19:38.176Z,100817.92
2022-10-19T22:22:10.085Z,100816.64
2022-10-19T22:24:42.150Z,100819.64
2022-10-19T22:27:14.025Z,100818.36
2022-10-19T22:29:45.989Z,100822.89
2022-10-19T22:32:18.044Z,100827.63
2022-10-19T22:34:50.380Z,100830.75
2022-10-19T22:37:22.264Z,100833.66
2022-10-19T22:39:54.356Z,100835.98
2022-10-19T22:42:24.991Z,100838.29
2022-10-19T22:44:57.076Z,100835.86
2022-10-19T22:47:29.059Z,100834.08
2022-10-19T22:50:01.431Z,100835.14
2022-10-19T22:52:33.743Z,100832.80
2022-10-19T22:55:06.238Z,100834.95
2022-10-19T22:57:38.242Z,100835.80
2022-10-19T23:00:12.753Z,100841.89
2022-10-19T23:02:44.884Z,100843.77
2022-10-19T23:05:17.706Z,100844.56
2022-10-19T23:07:49.757Z,100846.58
2022-10-19T23:10:21.688Z,100848.67
2022-10-19T23:12:54.559Z,100847.80
2022-10-19T23:15:26.731Z,100845.72
2022-10-19T23:18:00.462Z,100847.04
2022-10-19T23:20:32.657Z,100839.89
2022-10-19T23:23:02.979Z,100839.09
2022-10-19T23:25:34.995Z,100838.40
2022-10-19T23:28:07.300Z,100843.51
2022-10-19T23:30:41.272Z,100840.88
2022-10-19T23:33:13.112Z,100845.41
2022-10-19T23:35:45.091Z,100846.74
2022-10-19T23:38:17.145Z,100845.64
2022-10-19T23:40:47.532Z,100844.08
2022-10-19T23:43:19.458Z,100847.49
2022-10-19T23:45:51.417Z,100849.10
2022-10-19T23:48:23.483Z,100846.74
2022-10-19T23:51:00.559Z,100844.34
2022-10-19T23:53:38.439Z,100849.04
2022-10-19T23:56:16.123Z,100848.73
2022-10-19T23:58:48.498Z,100846.24
